sensor_id;sensor_type;location;lat;lon;timestamp;P1;durP1;ratioP1;P2;durP2;ratioP2
49223;SDS011;35050;51.316;5.994;2022-09-13T00:01:41;2.35;;;2.10;;
49223;SDS011;35050;51.316;5.994;2022-09-13T00:04:07;2.72;;;1.90;;
49223;SDS011;35050;51.316;5.994;2022-09-13T00:06:33;2.05;;;1.92;;
49223;SDS011;35050;51.316;5.994;2022-09-13T00:08:59;2.20;;;2.00;;
49223;SDS011;35050;51.316;5.994;2022-09-13T00:11:25;2.00;;;1.88;;
49223;SDS011;35050;51.316;5.994;2022-09-13T00:13:53;2.20;;;2.00;;
49223;SDS011;35050;51.316;5.994;2022-09-13T00:16:21;2.30;;;2.10;;
49223;SDS011;35050;51.316;5.994;2022-09-13T00:18:49;2.40;;;2.00;;
49223;SDS011;35050;51.316;5.994;2022-09-13T00:21:16;2.33;;;2.13;;
49223;SDS011;35050;51.316;5.994;2022-09-13T00:23:43;4.00;;;2.42;;
49223;SDS011;35050;51.316;5.994;2022-09-13T00:26:14;2.10;;;2.00;;
49223;SDS011;35050;51.316;5.994;2022-09-13T00:28:48;1.98;;;1.88;;
49223;SDS011;35050;51.316;5.994;2022-09-13T00:31:18;2.22;;;2.05;;
49223;SDS011;35050;51.316;5.994;2022-09-13T00:33:45;1.92;;;1.83;;
49223;SDS011;35050;51.316;5.994;2022-09-13T00:36:11;2.38;;;2.17;;
49223;SDS011;35050;51.316;5.994;2022-09-13T00:38:39;1.85;;;1.75;;
49223;SDS011;35050;51.316;5.994;2022-09-13T00:41:06;2.30;;;2.10;;
49223;SDS011;35050;51.316;5.994;2022-09-13T00:43:45;2.08;;;1.90;;
49223;SDS011;35050;51.316;5.994;2022-09-13T00:49:17;2.15;;;1.70;;
49223;SDS011;35050;51.316;5.994;2022-09-13T00:51:59;2.55;;;1.88;;
49223;SDS011;35050;51.316;5.994;2022-09-13T00:54:33;2.20;;;1.77;;
49223;SDS011;35050;51.316;5.994;2022-09-13T00:57:05;1.67;;;1.58;;
49223;SDS011;35050;51.316;5.994;2022-09-13T00:59:35;1.98;;;1.60;;
49223;SDS011;35050;51.316;5.994;2022-09-13T01:02:04;1.65;;;1.55;;
49223;SDS011;35050;51.316;5.994;2022-09-13T01:04:31;2.00;;;1.80;;
49223;SDS011;35050;51.316;5.994;2022-09-13T01:07:00;3.28;;;1.85;;
49223;SDS011;35050;51.316;5.994;2022-09-13T01:09:28;2.13;;;1.60;;
49223;SDS011;35050;51.316;5.994;2022-09-13T01:11:58;1.80;;;1.70;;
49223;SDS011;35050;51.316;5.994;2022-09-13T01:14:29;2.08;;;1.88;;
49223;SDS011;35050;51.316;5.994;2022-09-13T01:16:56;1.80;;;1.63;;
49223;SDS011;35050;51.316;5.994;2022-09-13T01:19:22;1.63;;;1.52;;
49223;SDS011;35050;51.316;5.994;2022-09-13T01:27:09;1.63;;;1.52;;
49223;SDS011;35050;51.316;5.994;2022-09-13T01:35:43;2.83;;;1.50;;
49223;SDS011;35050;51.316;5.994;2022-09-13T01:46:17;1.42;;;1.33;;
49223;SDS011;35050;51.316;5.994;2022-09-13T01:51:30;1.45;;;1.35;;
49223;SDS011;35050;51.316;5.994;2022-09-13T01:54:04;1.77;;;1.42;;
49223;SDS011;35050;51.316;5.994;2022-09-13T01:56:48;1.40;;;1.25;;
49223;SDS011;35050;51.316;5.994;2022-09-13T01:59:22;1.45;;;1.35;;
49223;SDS011;35050;51.316;5.994;2022-09-13T02:04:55;1.30;;;1.20;;
49223;SDS011;35050;51.316;5.994;2022-09-13T02:07:42;1.35;;;1.25;;
49223;SDS011;35050;51.316;5.994;2022-09-13T02:10:13;1.20;;;1.10;;
49223;SDS011;35050;51.316;5.994;2022-09-13T02:12:53;1.30;;;1.20;;
49223;SDS011;35050;51.316;5.994;2022-09-13T02:15:22;1.55;;;1.35;;
49223;SDS011;35050;51.316;5.994;2022-09-13T02:18:08;1.60;;;1.30;;
49223;SDS011;35050;51.316;5.994;2022-09-13T02:20:43;1.50;;;1.40;;
49223;SDS011;35050;51.316;5.994;2022-09-13T02:23:16;1.20;;;1.10;;
49223;SDS011;35050;51.316;5.994;2022-09-13T02:26:09;1.20;;;1.10;;
49223;SDS011;35050;51.316;5.994;2022-09-13T02:28:39;1.48;;;1.38;;
49223;SDS011;35050;51.316;5.994;2022-09-13T02:31:09;1.67;;;1.30;;
49223;SDS011;35050;51.316;5.994;2022-09-13T02:33:40;1.70;;;1.60;;
49223;SDS011;35050;51.316;5.994;2022-09-13T02:36:15;1.50;;;1.40;;
49223;SDS011;35050;51.316;5.994;2022-09-13T02:38:49;1.83;;;1.50;;
49223;SDS011;35050;51.316;5.994;2022-09-13T02:43:49;1.52;;;1.42;;
49223;SDS011;35050;51.316;5.994;2022-09-13T02:51:38;1.90;;;1.50;;
49223;SDS011;35050;51.316;5.994;2022-09-13T02:57:20;1.85;;;1.63;;
49223;SDS011;35050;51.316;5.994;2022-09-13T02:59:55;3.13;;;1.45;;
49223;SDS011;35050;51.316;5.994;2022-09-13T03:02:21;1.55;;;1.45;;
49223;SDS011;35050;51.316;5.994;2022-09-13T03:04:50;1.30;;;1.20;;
49223;SDS011;35050;51.316;5.994;2022-09-13T03:07:16;1.83;;;1.50;;
49223;SDS011;35050;51.316;5.994;2022-09-13T03:09:44;1.30;;;1.20;;
49223;SDS011;35050;51.316;5.994;2022-09-13T03:12:18;1.35;;;1.25;;
49223;SDS011;35050;51.316;5.994;2022-09-13T03:14:51;1.30;;;1.20;;
49223;SDS011;35050;51.316;5.994;2022-09-13T03:20:11;1.40;;;1.30;;
49223;SDS011;35050;51.316;5.994;2022-09-13T03:28:19;1.95;;;1.70;;
49223;SDS011;35050;51.316;5.994;2022-09-13T03:31:12;1.73;;;1.50;;
49223;SDS011;35050;51.316;5.994;2022-09-13T03:36:24;3.05;;;1.58;;
49223;SDS011;35050;51.316;5.994;2022-09-13T03:41:33;3.00;;;1.30;;
49223;SDS011;35050;51.316;5.994;2022-09-13T03:44:09;2.22;;;1.60;;
49223;SDS011;35050;51.316;5.994;2022-09-13T03:46:42;1.48;;;1.38;;
49223;SDS011;35050;51.316;5.994;2022-09-13T03:49:14;1.65;;;1.35;;
49223;SDS011;35050;51.316;5.994;2022-09-13T03:51:42;1.70;;;1.60;;
49223;SDS011;35050;51.316;5.994;2022-09-13T03:54:17;1.45;;;1.35;;
49223;SDS011;35050;51.316;5.994;2022-09-13T03:57:07;2.03;;;1.50;;
49223;SDS011;35050;51.316;5.994;2022-09-13T03:59:37;1.35;;;1.25;;
49223;SDS011;35050;51.316;5.994;2022-09-13T04:02:06;2.35;;;1.52;;
49223;SDS011;35050;51.316;5.994;2022-09-13T04:04:35;1.50;;;1.40;;
49223;SDS011;35050;51.316;5.994;2022-09-13T04:07:02;1.92;;;1.50;;
49223;SDS011;35050;51.316;5.994;2022-09-13T04:09:28;2.15;;;1.50;;
49223;SDS011;35050;51.316;5.994;2022-09-13T04:11:55;1.45;;;1.35;;
49223;SDS011;35050;51.316;5.994;2022-09-13T04:14:21;1.40;;;1.30;;
49223;SDS011;35050;51.316;5.994;2022-09-13T04:16:50;1.70;;;1.40;;
49223;SDS011;35050;51.316;5.994;2022-09-13T04:19:17;1.50;;;1.40;;
49223;SDS011;35050;51.316;5.994;2022-09-13T04:21:42;5.18;;;1.40;;
49223;SDS011;35050;51.316;5.994;2022-09-13T04:24:08;3.13;;;1.50;;
49223;SDS011;35050;51.316;5.994;2022-09-13T04:26:33;1.48;;;1.38;;
49223;SDS011;35050;51.316;5.994;2022-09-13T04:28:59;2.28;;;1.50;;
49223;SDS011;35050;51.316;5.994;2022-09-13T04:31:25;1.50;;;1.40;;
49223;SDS011;35050;51.316;5.994;2022-09-13T04:33:50;3.95;;;1.70;;
49223;SDS011;35050;51.316;5.994;2022-09-13T04:36:16;2.00;;;1.85;;
49223;SDS011;35050;51.316;5.994;2022-09-13T04:38:42;1.73;;;1.63;;
49223;SDS011;35050;51.316;5.994;2022-09-13T04:41:10;2.05;;;1.60;;
49223;SDS011;35050;51.316;5.994;2022-09-13T04:43:37;2.05;;;1.80;;
49223;SDS011;35050;51.316;5.994;2022-09-13T04:46:03;3.05;;;1.80;;
49223;SDS011;35050;51.316;5.994;2022-09-13T04:48:28;3.05;;;1.85;;
49223;SDS011;35050;51.316;5.994;2022-09-13T04:50:59;2.67;;;1.85;;
49223;SDS011;35050;51.316;5.994;2022-09-13T04:53:29;2.75;;;1.75;;
49223;SDS011;35050;51.316;5.994;2022-09-13T04:56:04;1.70;;;1.60;;
49223;SDS011;35050;51.316;5.994;2022-09-13T04:58:30;1.75;;;1.55;;
49223;SDS011;35050;51.316;5.994;2022-09-13T05:01:03;1.63;;;1.52;;
49223;SDS011;35050;51.316;5.994;2022-09-13T05:03:30;2.00;;;1.80;;
49223;SDS011;35050;51.316;5.994;2022-09-13T05:06:03;1.50;;;1.30;;
49223;SDS011;35050;51.316;5.994;2022-09-13T05:08:31;1.73;;;1.60;;
49223;SDS011;35050;51.316;5.994;2022-09-13T05:10:57;1.50;;;1.40;;
49223;SDS011;35050;51.316;5.994;2022-09-13T05:13:23;1.38;;;1.27;;
49223;SDS011;35050;51.316;5.994;2022-09-13T05:15:49;3.10;;;1.70;;
49223;SDS011;35050;51.316;5.994;2022-09-13T05:18:25;1.70;;;1.60;;
49223;SDS011;35050;51.316;5.994;2022-09-13T05:20:55;1.63;;;1.42;;
49223;SDS011;35050;51.316;5.994;2022-09-13T05:23:22;1.40;;;1.30;;
49223;SDS011;35050;51.316;5.994;2022-09-13T05:25:55;1.40;;;1.30;;
49223;SDS011;35050;51.316;5.994;2022-09-13T05:28:22;1.42;;;1.33;;
49223;SDS011;35050;51.316;5.994;2022-09-13T05:30:58;1.50;;;1.40;;
49223;SDS011;35050;51.316;5.994;2022-09-13T05:33:26;1.85;;;1.10;;
49223;SDS011;35050;51.316;5.994;2022-09-13T05:35:52;1.58;;;1.48;;
49223;SDS011;35050;51.316;5.994;2022-09-13T05:38:18;2.05;;;1.40;;
49223;SDS011;35050;51.316;5.994;2022-09-13T05:40:45;1.60;;;1.30;;
49223;SDS011;35050;51.316;5.994;2022-09-13T05:43:10;1.52;;;1.42;;
49223;SDS011;35050;51.316;5.994;2022-09-13T05:45:37;1.60;;;1.50;;
49223;SDS011;35050;51.316;5.994;2022-09-13T05:48:03;1.70;;;1.60;;
49223;SDS011;35050;51.316;5.994;2022-09-13T05:50:28;1.40;;;1.30;;
49223;SDS011;35050;51.316;5.994;2022-09-13T05:52:54;1.63;;;1.30;;
49223;SDS011;35050;51.316;5.994;2022-09-13T05:55:20;1.48;;;1.38;;
49223;SDS011;35050;51.316;5.994;2022-09-13T05:57:46;1.33;;;1.23;;
49223;SDS011;35050;51.316;5.994;2022-09-13T06:00:13;1.30;;;1.20;;
49223;SDS011;35050;51.316;5.994;2022-09-13T06:02:39;1.42;;;1.30;;
49223;SDS011;35050;51.316;5.994;2022-09-13T06:05:06;1.30;;;1.20;;
49223;SDS011;35050;51.316;5.994;2022-09-13T06:07:34;1.75;;;1.63;;
49223;SDS011;35050;51.316;5.994;2022-09-13T06:09:59;1.83;;;1.42;;
49223;SDS011;35050;51.316;5.994;2022-09-13T06:12:26;1.77;;;1.30;;
49223;SDS011;35050;51.316;5.994;2022-09-13T06:14:52;1.40;;;1.30;;
49223;SDS011;35050;51.316;5.994;2022-09-13T06:17:18;1.48;;;1.38;;
49223;SDS011;35050;51.316;5.994;2022-09-13T06:19:43;1.40;;;1.30;;
49223;SDS011;35050;51.316;5.994;2022-09-13T06:22:09;3.05;;;1.40;;
49223;SDS011;35050;51.316;5.994;2022-09-13T06:24:34;2.58;;;1.40;;
49223;SDS011;35050;51.316;5.994;2022-09-13T06:27:03;2.25;;;1.08;;
49223;SDS011;35050;51.316;5.994;2022-09-13T06:29:29;2.65;;;1.35;;
49223;SDS011;35050;51.316;5.994;2022-09-13T06:31:55;1.30;;;1.17;;
49223;SDS011;35050;51.316;5.994;2022-09-13T06:34:22;1.60;;;1.40;;
49223;SDS011;35050;51.316;5.994;2022-09-13T06:36:48;2.05;;;1.52;;
49223;SDS011;35050;51.316;5.994;2022-09-13T06:39:13;2.78;;;1.52;;
49223;SDS011;35050;51.316;5.994;2022-09-13T06:41:39;3.33;;;1.33;;
49223;SDS011;35050;51.316;5.994;2022-09-13T06:44:04;1.15;;;1.13;;
49223;SDS011;35050;51.316;5.994;2022-09-13T06:46:31;1.85;;;1.20;;
49223;SDS011;35050;51.316;5.994;2022-09-13T06:48:59;2.38;;;1.50;;
49223;SDS011;35050;51.316;5.994;2022-09-13T06:51:26;1.70;;;1.60;;
49223;SDS011;35050;51.316;5.994;2022-09-13T06:53:53;2.35;;;1.42;;
49223;SDS011;35050;51.316;5.994;2022-09-13T06:56:29;1.67;;;1.58;;
49223;SDS011;35050;51.316;5.994;2022-09-13T06:58:59;1.40;;;1.30;;
49223;SDS011;35050;51.316;5.994;2022-09-13T07:01:33;2.78;;;1.67;;
49223;SDS011;35050;51.316;5.994;2022-09-13T07:04:01;2.83;;;1.50;;
49223;SDS011;35050;51.316;5.994;2022-09-13T07:06:38;1.75;;;1.52;;
49223;SDS011;35050;51.316;5.994;2022-09-13T07:09:06;1.60;;;1.50;;
49223;SDS011;35050;51.316;5.994;2022-09-13T07:11:34;3.50;;;1.35;;
49223;SDS011;35050;51.316;5.994;2022-09-13T07:14:02;3.75;;;1.50;;
49223;SDS011;35050;51.316;5.994;2022-09-13T07:16:29;4.13;;;1.40;;
49223;SDS011;35050;51.316;5.994;2022-09-13T07:19:00;3.42;;;1.35;;
49223;SDS011;35050;51.316;5.994;2022-09-13T07:21:29;1.65;;;1.35;;
49223;SDS011;35050;51.316;5.994;2022-09-13T07:23:55;2.90;;;1.70;;
49223;SDS011;35050;51.316;5.994;2022-09-13T07:26:21;1.60;;;1.48;;
49223;SDS011;35050;51.316;5.994;2022-09-13T07:28:48;1.45;;;1.35;;
49223;SDS011;35050;51.316;5.994;2022-09-13T07:31:20;1.50;;;1.40;;
49223;SDS011;35050;51.316;5.994;2022-09-13T07:33:51;1.70;;;1.60;;
49223;SDS011;35050;51.316;5.994;2022-09-13T07:36:18;1.73;;;1.42;;
49223;SDS011;35050;51.316;5.994;2022-09-13T07:38:44;1.58;;;1.48;;
49223;SDS011;35050;51.316;5.994;2022-09-13T07:41:13;2.13;;;1.80;;
49223;SDS011;35050;51.316;5.994;2022-09-13T07:43:41;2.10;;;1.48;;
49223;SDS011;35050;51.316;5.994;2022-09-13T07:46:07;1.63;;;1.40;;
49223;SDS011;35050;51.316;5.994;2022-09-13T07:48:35;1.88;;;1.60;;
49223;SDS011;35050;51.316;5.994;2022-09-13T07:53:29;1.90;;;1.63;;
49223;SDS011;35050;51.316;5.994;2022-09-13T07:56:12;1.80;;;1.70;;
49223;SDS011;35050;51.316;5.994;2022-09-13T07:58:39;2.30;;;1.60;;
49223;SDS011;35050;51.316;5.994;2022-09-13T08:01:07;2.72;;;2.00;;
49223;SDS011;35050;51.316;5.994;2022-09-13T08:03:36;3.85;;;2.08;;
49223;SDS011;35050;51.316;5.994;2022-09-13T08:06:02;1.60;;;1.50;;
49223;SDS011;35050;51.316;5.994;2022-09-13T08:08:29;2.17;;;1.60;;
49223;SDS011;35050;51.316;5.994;2022-09-13T08:10:55;1.98;;;1.75;;
49223;SDS011;35050;51.316;5.994;2022-09-13T08:13:21;1.90;;;1.80;;
49223;SDS011;35050;51.316;5.994;2022-09-13T08:15:47;2.53;;;2.33;;
49223;SDS011;35050;51.316;5.994;2022-09-13T08:18:14;2.40;;;2.20;;
49223;SDS011;35050;51.316;5.994;2022-09-13T08:20:43;2.40;;;1.90;;
49223;SDS011;35050;51.316;5.994;2022-09-13T08:23:09;1.88;;;1.73;;
49223;SDS011;35050;51.316;5.994;2022-09-13T08:25:36;2.40;;;2.22;;
49223;SDS011;35050;51.316;5.994;2022-09-13T08:28:06;2.75;;;2.03;;
49223;SDS011;35050;51.316;5.994;2022-09-13T08:30:33;4.75;;;2.80;;
49223;SDS011;35050;51.316;5.994;2022-09-13T08:33:01;2.80;;;2.47;;
49223;SDS011;35050;51.316;5.994;2022-09-13T08:35:28;2.60;;;2.28;;
49223;SDS011;35050;51.316;5.994;2022-09-13T08:37:54;3.63;;;2.63;;
49223;SDS011;35050;51.316;5.994;2022-09-13T08:40:21;3.97;;;3.03;;
49223;SDS011;35050;51.316;5.994;2022-09-13T08:45:23;4.32;;;3.92;;
49223;SDS011;35050;51.316;5.994;2022-09-13T08:47:58;4.25;;;3.53;;
49223;SDS011;35050;51.316;5.994;2022-09-13T08:50:47;3.45;;;2.60;;
49223;SDS011;35050;51.316;5.994;2022-09-13T09:03:52;3.85;;;3.55;;
49223;SDS011;35050;51.316;5.994;2022-09-13T09:06:29;5.00;;;4.22;;
49223;SDS011;35050;51.316;5.994;2022-09-13T09:14:37;5.53;;;3.85;;
49223;SDS011;35050;51.316;5.994;2022-09-13T09:17:19;4.88;;;4.15;;
49223;SDS011;35050;51.316;5.994;2022-09-13T09:19:51;5.30;;;4.75;;
49223;SDS011;35050;51.316;5.994;2022-09-13T09:22:22;6.22;;;4.13;;
49223;SDS011;35050;51.316;5.994;2022-09-13T09:24:54;6.00;;;4.63;;
49223;SDS011;35050;51.316;5.994;2022-09-13T09:27:21;6.85;;;3.83;;
49223;SDS011;35050;51.316;5.994;2022-09-13T09:29:47;3.78;;;3.25;;
49223;SDS011;35050;51.316;5.994;2022-09-13T09:35:07;3.90;;;3.50;;
49223;SDS011;35050;51.316;5.994;2022-09-13T09:40:43;2.53;;;2.30;;
49223;SDS011;35050;51.316;5.994;2022-09-13T09:43:14;4.15;;;2.60;;
49223;SDS011;35050;51.316;5.994;2022-09-13T09:45:48;2.75;;;2.40;;
49223;SDS011;35050;51.316;5.994;2022-09-13T09:48:19;2.58;;;2.38;;
49223;SDS011;35050;51.316;5.994;2022-09-13T09:50:53;3.42;;;2.95;;
49223;SDS011;35050;51.316;5.994;2022-09-13T09:53:25;3.20;;;2.90;;
49223;SDS011;35050;51.316;5.994;2022-09-13T09:58:54;4.00;;;3.55;;
49223;SDS011;35050;51.316;5.994;2022-09-13T10:01:30;4.57;;;3.10;;
49223;SDS011;35050;51.316;5.994;2022-09-13T10:04:05;2.97;;;2.50;;
49223;SDS011;35050;51.316;5.994;2022-09-13T10:06:36;2.78;;;2.05;;
49223;SDS011;35050;51.316;5.994;2022-09-13T10:17:27;2.60;;;2.38;;
49223;SDS011;35050;51.316;5.994;2022-09-13T10:19:56;2.90;;;2.40;;
49223;SDS011;35050;51.316;5.994;2022-09-13T10:22:25;2.88;;;2.20;;
49223;SDS011;35050;51.316;5.994;2022-09-13T10:24:52;2.97;;;2.67;;
49223;SDS011;35050;51.316;5.994;2022-09-13T10:27:19;4.13;;;2.78;;
49223;SDS011;35050;51.316;5.994;2022-09-13T10:29:52;2.40;;;2.20;;
49223;SDS011;35050;51.316;5.994;2022-09-13T10:32:23;2.83;;;2.30;;
49223;SDS011;35050;51.316;5.994;2022-09-13T10:34:50;3.85;;;2.67;;
49223;SDS011;35050;51.316;5.994;2022-09-13T10:37:19;2.75;;;2.50;;
49223;SDS011;35050;51.316;5.994;2022-09-13T10:39:54;4.25;;;2.30;;
49223;SDS011;35050;51.316;5.994;2022-09-13T10:42:27;2.53;;;2.00;;
49223;SDS011;35050;51.316;5.994;2022-09-13T10:47:29;3.03;;;2.28;;
49223;SDS011;35050;51.316;5.994;2022-09-13T10:52:50;3.83;;;2.88;;
49223;SDS011;35050;51.316;5.994;2022-09-13T10:57:42;3.45;;;2.60;;
49223;SDS011;35050;51.316;5.994;2022-09-13T11:00:14;2.78;;;2.58;;
49223;SDS011;35050;51.316;5.994;2022-09-13T11:02:52;2.80;;;2.40;;
49223;SDS011;35050;51.316;5.994;2022-09-13T11:08:45;3.33;;;2.72;;
49223;SDS011;35050;51.316;5.994;2022-09-13T11:11:22;4.57;;;3.05;;
49223;SDS011;35050;51.316;5.994;2022-09-13T11:21:55;2.92;;;2.63;;
49223;SDS011;35050;51.316;5.994;2022-09-13T11:24:41;4.85;;;2.30;;
49223;SDS011;35050;51.316;5.994;2022-09-13T11:30:31;5.20;;;2.33;;
49223;SDS011;35050;51.316;5.994;2022-09-13T11:38:51;3.13;;;2.28;;
49223;SDS011;35050;51.316;5.994;2022-09-13T11:41:52;2.95;;;2.60;;
49223;SDS011;35050;51.316;5.994;2022-09-13T11:52:30;3.47;;;2.63;;
49223;SDS011;35050;51.316;5.994;2022-09-13T11:55:02;3.58;;;2.20;;
49223;SDS011;35050;51.316;5.994;2022-09-13T11:57:39;3.00;;;2.70;;
49223;SDS011;35050;51.316;5.994;2022-09-13T12:05:15;3.17;;;2.60;;
49223;SDS011;35050;51.316;5.994;2022-09-13T12:07:55;2.20;;;2.00;;
49223;SDS011;35050;51.316;5.994;2022-09-13T12:13:18;2.58;;;2.33;;
49223;SDS011;35050;51.316;5.994;2022-09-13T12:15:49;2.40;;;2.20;;
49223;SDS011;35050;51.316;5.994;2022-09-13T12:20:53;2.42;;;2.00;;
49223;SDS011;35050;51.316;5.994;2022-09-13T12:23:24;2.78;;;2.35;;
49223;SDS011;35050;51.316;5.994;2022-09-13T12:25:59;2.55;;;2.33;;
49223;SDS011;35050;51.316;5.994;2022-09-13T12:28:33;2.28;;;2.08;;
49223;SDS011;35050;51.316;5.994;2022-09-13T12:31:09;2.78;;;2.40;;
49223;SDS011;35050;51.316;5.994;2022-09-13T12:33:40;2.95;;;2.00;;
49223;SDS011;35050;51.316;5.994;2022-09-13T12:58:27;2.23;;;1.80;;
49223;SDS011;35050;51.316;5.994;2022-09-13T13:01:09;2.78;;;2.10;;
49223;SDS011;35050;51.316;5.994;2022-09-13T13:03:58;2.50;;;1.80;;
49223;SDS011;35050;51.316;5.994;2022-09-13T13:06:38;1.27;;;1.10;;
49223;SDS011;35050;51.316;5.994;2022-09-13T13:12:06;1.95;;;1.60;;
49223;SDS011;35050;51.316;5.994;2022-09-13T13:14:56;2.15;;;1.45;;
49223;SDS011;35050;51.316;5.994;2022-09-13T13:17:44;3.35;;;1.63;;
49223;SDS011;35050;51.316;5.994;2022-09-13T13:33:53;2.45;;;1.50;;
49223;SDS011;35050;51.316;5.994;2022-09-13T13:36:45;1.98;;;1.63;;
49223;SDS011;35050;51.316;5.994;2022-09-13T13:46:49;2.45;;;1.80;;
49223;SDS011;35050;51.316;5.994;2022-09-13T13:58:10;3.00;;;1.90;;
49223;SDS011;35050;51.316;5.994;2022-09-13T14:00:36;1.85;;;1.75;;
49223;SDS011;35050;51.316;5.994;2022-09-13T14:06:01;2.22;;;1.90;;
49223;SDS011;35050;51.316;5.994;2022-09-13T14:14:54;2.40;;;2.00;;
49223;SDS011;35050;51.316;5.994;2022-09-13T14:20:11;2.03;;;1.75;;
49223;SDS011;35050;51.316;5.994;2022-09-13T14:22:40;1.50;;;1.38;;
49223;SDS011;35050;51.316;5.994;2022-09-13T14:27:44;3.28;;;2.33;;
49223;SDS011;35050;51.316;5.994;2022-09-13T14:32:47;3.95;;;2.08;;
49223;SDS011;35050;51.316;5.994;2022-09-13T14:37:50;2.13;;;1.92;;
49223;SDS011;35050;51.316;5.994;2022-09-13T14:40:18;2.40;;;1.90;;
49223;SDS011;35050;51.316;5.994;2022-09-13T14:42:52;2.03;;;1.83;;
49223;SDS011;35050;51.316;5.994;2022-09-13T14:45:19;2.72;;;1.90;;
49223;SDS011;35050;51.316;5.994;2022-09-13T14:48:00;2.65;;;1.77;;
49223;SDS011;35050;51.316;5.994;2022-09-13T14:50:34;1.83;;;1.70;;
49223;SDS011;35050;51.316;5.994;2022-09-13T14:53:05;3.13;;;2.00;;
49223;SDS011;35050;51.316;5.994;2022-09-13T14:55:34;2.75;;;2.45;;
49223;SDS011;35050;51.316;5.994;2022-09-13T14:58:05;3.83;;;2.30;;
49223;SDS011;35050;51.316;5.994;2022-09-13T15:00:44;2.40;;;2.03;;
49223;SDS011;35050;51.316;5.994;2022-09-13T15:03:33;2.47;;;2.28;;
49223;SDS011;35050;51.316;5.994;2022-09-13T15:05:59;1.75;;;1.50;;
49223;SDS011;35050;51.316;5.994;2022-09-13T15:11:02;2.65;;;1.55;;
49223;SDS011;35050;51.316;5.994;2022-09-13T15:13:30;1.65;;;1.55;;
49223;SDS011;35050;51.316;5.994;2022-09-13T15:15:56;1.83;;;1.70;;
49223;SDS011;35050;51.316;5.994;2022-09-13T15:18:23;2.38;;;2.00;;
49223;SDS011;35050;51.316;5.994;2022-09-13T15:21:13;4.15;;;1.80;;
49223;SDS011;35050;51.316;5.994;2022-09-13T15:23:41;2.38;;;1.80;;
49223;SDS011;35050;51.316;5.994;2022-09-13T15:28:56;1.50;;;1.38;;
49223;SDS011;35050;51.316;5.994;2022-09-13T15:31:31;2.03;;;1.50;;
49223;SDS011;35050;51.316;5.994;2022-09-13T15:36:45;2.10;;;1.58;;
49223;SDS011;35050;51.316;5.994;2022-09-13T15:39:13;3.55;;;2.10;;
49223;SDS011;35050;51.316;5.994;2022-09-13T15:41:54;2.25;;;2.05;;
49223;SDS011;35050;51.316;5.994;2022-09-13T15:44:22;2.45;;;2.20;;
49223;SDS011;35050;51.316;5.994;2022-09-13T15:47:10;3.20;;;2.58;;
49223;SDS011;35050;51.316;5.994;2022-09-13T15:49:48;3.38;;;2.65;;
49223;SDS011;35050;51.316;5.994;2022-09-13T15:52:15;3.17;;;2.80;;
49223;SDS011;35050;51.316;5.994;2022-09-13T15:54:42;2.88;;;2.33;;
49223;SDS011;35050;51.316;5.994;2022-09-13T15:57:15;2.47;;;1.90;;
49223;SDS011;35050;51.316;5.994;2022-09-13T15:59:46;2.75;;;2.05;;
49223;SDS011;35050;51.316;5.994;2022-09-13T16:02:17;3.40;;;2.60;;
49223;SDS011;35050;51.316;5.994;2022-09-13T16:04:47;4.30;;;2.60;;
49223;SDS011;35050;51.316;5.994;2022-09-13T16:07:13;3.95;;;2.38;;
49223;SDS011;35050;51.316;5.994;2022-09-13T16:09:39;2.45;;;2.17;;
49223;SDS011;35050;51.316;5.994;2022-09-13T16:12:05;2.63;;;2.08;;
49223;SDS011;35050;51.316;5.994;2022-09-13T16:14:31;2.50;;;1.83;;
49223;SDS011;35050;51.316;5.994;2022-09-13T16:16:58;2.38;;;2.17;;
49223;SDS011;35050;51.316;5.994;2022-09-13T16:19:27;1.98;;;1.85;;
49223;SDS011;35050;51.316;5.994;2022-09-13T16:21:52;1.70;;;1.60;;
49223;SDS011;35050;51.316;5.994;2022-09-13T16:24:18;2.75;;;1.77;;
49223;SDS011;35050;51.316;5.994;2022-09-13T16:26:44;2.00;;;1.80;;
49223;SDS011;35050;51.316;5.994;2022-09-13T16:29:10;2.13;;;1.92;;
49223;SDS011;35050;51.316;5.994;2022-09-13T16:31:37;3.25;;;1.90;;
49223;SDS011;35050;51.316;5.994;2022-09-13T16:34:02;2.35;;;1.80;;
49223;SDS011;35050;51.316;5.994;2022-09-13T16:36:28;2.20;;;1.90;;
49223;SDS011;35050;51.316;5.994;2022-09-13T16:38:55;1.77;;;1.67;;
49223;SDS011;35050;51.316;5.994;2022-09-13T16:41:21;1.85;;;1.75;;
49223;SDS011;35050;51.316;5.994;2022-09-13T16:43:46;2.42;;;1.77;;
49223;SDS011;35050;51.316;5.994;2022-09-13T16:46:12;1.67;;;1.58;;
49223;SDS011;35050;51.316;5.994;2022-09-13T16:48:39;2.17;;;1.90;;
49223;SDS011;35050;51.316;5.994;2022-09-13T16:51:06;2.42;;;1.75;;
49223;SDS011;35050;51.316;5.994;2022-09-13T16:53:34;2.40;;;1.90;;
49223;SDS011;35050;51.316;5.994;2022-09-13T16:58:30;2.10;;;1.90;;
49223;SDS011;35050;51.316;5.994;2022-09-13T17:00:56;3.08;;;2.10;;
49223;SDS011;35050;51.316;5.994;2022-09-13T17:03:22;5.72;;;2.05;;
49223;SDS011;35050;51.316;5.994;2022-09-13T17:05:59;2.55;;;2.03;;
49223;SDS011;35050;51.316;5.994;2022-09-13T17:08:26;2.10;;;1.90;;
49223;SDS011;35050;51.316;5.994;2022-09-13T17:10:52;5.13;;;2.40;;
49223;SDS011;35050;51.316;5.994;2022-09-13T17:13:18;2.38;;;2.03;;
49223;SDS011;35050;51.316;5.994;2022-09-13T17:15:44;3.63;;;2.15;;
49223;SDS011;35050;51.316;5.994;2022-09-13T17:18:10;2.40;;;1.70;;
49223;SDS011;35050;51.316;5.994;2022-09-13T17:20:35;2.90;;;1.70;;
49223;SDS011;35050;51.316;5.994;2022-09-13T17:23:06;2.28;;;1.80;;
49223;SDS011;35050;51.316;5.994;2022-09-13T17:25:32;3.10;;;2.10;;
49223;SDS011;35050;51.316;5.994;2022-09-13T17:27:57;2.65;;;1.88;;
49223;SDS011;35050;51.316;5.994;2022-09-13T17:30:23;3.45;;;1.92;;
49223;SDS011;35050;51.316;5.994;2022-09-13T17:32:49;2.63;;;1.92;;
49223;SDS011;35050;51.316;5.994;2022-09-13T17:35:15;2.80;;;2.17;;
49223;SDS011;35050;51.316;5.994;2022-09-13T17:37:41;3.03;;;2.30;;
49223;SDS011;35050;51.316;5.994;2022-09-13T17:40:09;3.83;;;2.40;;
49223;SDS011;35050;51.316;5.994;2022-09-13T17:42:35;2.72;;;2.30;;
49223;SDS011;35050;51.316;5.994;2022-09-13T17:45:00;3.15;;;2.35;;
49223;SDS011;35050;51.316;5.994;2022-09-13T17:47:26;3.80;;;2.25;;
49223;SDS011;35050;51.316;5.994;2022-09-13T17:49:52;2.42;;;2.00;;
49223;SDS011;35050;51.316;5.994;2022-09-13T17:52:18;3.03;;;2.17;;
49223;SDS011;35050;51.316;5.994;2022-09-13T17:54:43;1.92;;;1.75;;
49223;SDS011;35050;51.316;5.994;2022-09-13T17:57:10;4.03;;;1.95;;
49223;SDS011;35050;51.316;5.994;2022-09-13T17:59:39;2.53;;;1.88;;
49223;SDS011;35050;51.316;5.994;2022-09-13T18:02:05;2.40;;;2.00;;
49223;SDS011;35050;51.316;5.994;2022-09-13T18:04:31;1.92;;;1.80;;
49223;SDS011;35050;51.316;5.994;2022-09-13T18:06:56;3.03;;;1.60;;
49223;SDS011;35050;51.316;5.994;2022-09-13T18:09:22;1.65;;;1.55;;
49223;SDS011;35050;51.316;5.994;2022-09-13T18:11:49;2.00;;;1.80;;
49223;SDS011;35050;51.316;5.994;2022-09-13T18:14:15;1.83;;;1.63;;
49223;SDS011;35050;51.316;5.994;2022-09-13T18:16:42;1.70;;;1.60;;
49223;SDS011;35050;51.316;5.994;2022-09-13T18:19:08;1.80;;;1.70;;
49223;SDS011;35050;51.316;5.994;2022-09-13T18:21:34;1.73;;;1.63;;
49223;SDS011;35050;51.316;5.994;2022-09-13T18:24:00;2.25;;;2.05;;
49223;SDS011;35050;51.316;5.994;2022-09-13T18:26:27;2.30;;;2.00;;
49223;SDS011;35050;51.316;5.994;2022-09-13T18:28:54;1.95;;;1.85;;
49223;SDS011;35050;51.316;5.994;2022-09-13T18:31:25;2.42;;;2.13;;
49223;SDS011;35050;51.316;5.994;2022-09-13T18:33:55;2.28;;;2.08;;
49223;SDS011;35050;51.316;5.994;2022-09-13T18:36:23;2.40;;;1.83;;
49223;SDS011;35050;51.316;5.994;2022-09-13T18:38:49;2.00;;;1.90;;
49223;SDS011;35050;51.316;5.994;2022-09-13T18:41:28;1.98;;;1.85;;
49223;SDS011;35050;51.316;5.994;2022-09-13T18:43:55;2.00;;;1.80;;
49223;SDS011;35050;51.316;5.994;2022-09-13T18:46:24;2.10;;;1.90;;
49223;SDS011;35050;51.316;5.994;2022-09-13T18:48:52;1.77;;;1.60;;